Time;durP1;ratioP1;P1;durP2;ratioP2;P2;SDS_P1;SDS_P2;PMS_P1;PMS_P2;Temp;Humidity;BMP_temperature;BMP_pressure;BME280_temperature;BME280_humidity;BME280_pressure;Samples;Min_cycle;Max_cycle;Signal;HPM_P1;HPM_P2
2023/07/02 00:01:46;;;;;;;0.60;0.60;;;27.90;46.00;;;;;;4978679;28;20109;-67
2023/07/02 00:04:16;;;;;;;0.88;0.70;;;27.90;45.80;;;;;;4978946;28;20423;-67
2023/07/02 00:06:45;;;;;;;1.17;0.70;;;27.90;45.80;;;;;;4975403;28;20459;-67
2023/07/02 00:09:11;;;;;;;1.02;0.77;;;27.80;45.80;;;;;;4979442;28;20458;-67
2023/07/02 00:11:39;;;;;;;0.73;0.60;;;27.80;45.90;;;;;;4980326;28;20031;-67
2023/07/02 00:14:05;;;;;;;0.90;0.70;;;27.80;45.90;;;;;;4977154;28;20030;-67
2023/07/02 00:16:31;;;;;;;0.75;0.70;;;27.80;45.90;;;;;;4978968;28;20046;-67
2023/07/02 00:18:57;;;;;;;1.45;0.60;;;27.80;45.90;;;;;;4978128;28;20427;-66
2023/07/02 00:21:27;;;;;;;1.02;0.75;;;27.80;45.90;;;;;;4975977;28;20120;-67
2023/07/02 00:23:56;;;;;;;1.17;0.70;;;27.80;45.90;;;;;;4963175;28;20062;-67
2023/07/02 00:26:28;;;;;;;0.85;0.65;;;27.70;45.80;;;;;;4980356;28;20038;-66
2023/07/02 00:28:55;;;;;;;0.60;0.60;;;27.70;45.80;;;;;;4970872;28;20034;-67
2023/07/02 00:31:21;;;;;;;1.00;0.70;;;27.70;45.80;;;;;;4981953;28;20046;-67
2023/07/02 00:33:48;;;;;;;0.70;0.70;;;27.70;45.80;;;;;;4981926;28;20609;-67
2023/07/02 00:36:17;;;;;;;0.85;0.70;;;27.70;45.80;;;;;;4978905;28;20030;-67
2023/07/02 00:38:49;;;;;;;1.00;0.70;;;27.70;45.80;;;;;;4979703;28;20038;-67
2023/07/02 00:41:16;;;;;;;0.80;0.60;;;27.70;45.80;;;;;;4966329;28;20118;-66
2023/07/02 00:43:44;;;;;;;0.70;0.68;;;27.60;45.70;;;;;;4968619;28;20030;-67
2023/07/02 00:46:19;;;;;;;2.13;0.70;;;27.60;45.70;;;;;;4980905;28;20486;-66
2023/07/02 00:48:50;;;;;;;0.93;0.60;;;27.60;45.70;;;;;;4982109;28;20438;-67
2023/07/02 00:51:21;;;;;;;0.90;0.60;;;27.60;45.70;;;;;;4979405;28;20030;-67
2023/07/02 00:53:49;;;;;;;0.60;0.60;;;27.60;45.80;;;;;;4979277;28;20035;-66
2023/07/02 00:56:15;;;;;;;0.60;0.60;;;27.60;45.80;;;;;;4981526;28;20406;-67
2023/07/02 00:58:46;;;;;;;0.60;0.60;;;27.60;45.80;;;;;;4981132;28;20031;-67
2023/07/02 01:01:14;;;;;;;0.93;0.70;;;27.60;45.80;;;;;;4971821;28;20125;-67
2023/07/02 01:03:56;;;;;;;0.82;0.60;;;27.50;45.70;;;;;;4980538;28;20424;-67
2023/07/02 01:06:27;;;;;;;0.82;0.60;;;27.50;45.70;;;;;;4971029;28;20065;-67
2023/07/02 01:08:55;;;;;;;0.68;0.60;;;27.50;45.70;;;;;;4981994;28;20077;-67
2023/07/02 01:11:27;;;;;;;0.65;0.60;;;27.50;45.70;;;;;;4982287;28;20104;-67
2023/07/02 01:13:58;;;;;;;1.88;0.70;;;27.50;45.80;;;;;;4980357;28;20038;-67
2023/07/02 01:16:24;;;;;;;1.67;0.80;;;27.50;45.80;;;;;;4981261;28;20447;-67
2023/07/02 01:18:54;;;;;;;1.02;0.70;;;27.40;45.70;;;;;;4981241;28;20062;-67
2023/07/02 01:21:20;;;;;;;0.70;0.70;;;27.40;45.70;;;;;;4980810;28;20113;-67
2023/07/02 01:23:46;;;;;;;0.73;0.60;;;27.40;45.70;;;;;;4965936;28;20030;-67
2023/07/02 01:26:12;;;;;;;1.08;0.85;;;27.40;45.80;;;;;;4980485;28;20064;-67
2023/07/02 01:28:38;;;;;;;0.52;0.52;;;27.40;45.80;;;;;;4983451;28;20045;-67
2023/07/02 01:31:05;;;;;;;0.90;0.70;;;27.40;45.80;;;;;;4971994;28;20089;-66
2023/07/02 01:33:31;;;;;;;0.60;0.57;;;27.40;45.80;;;;;;4980769;28;20022;-67
2023/07/02 01:35:56;;;;;;;0.70;0.60;;;27.30;45.70;;;;;;4980045;28;20465;-67
2023/07/02 01:38:22;;;;;;;0.80;0.70;;;27.40;45.80;;;;;;4969856;28;20039;-67
2023/07/02 01:40:48;;;;;;;0.60;0.55;;;27.30;45.80;;;;;;4978266;28;20033;-67
2023/07/02 01:43:13;;;;;;;1.02;0.63;;;27.30;45.80;;;;;;4981654;28;20031;-67
2023/07/02 01:45:41;;;;;;;0.60;0.60;;;27.30;45.80;;;;;;4979827;28;20027;-67
2023/07/02 01:48:07;;;;;;;0.80;0.60;;;27.30;45.80;;;;;;4980218;28;20364;-66
2023/07/02 01:50:32;;;;;;;0.88;0.70;;;27.30;45.80;;;;;;4962661;28;20042;-66
2023/07/02 01:52:59;;;;;;;0.60;0.60;;;27.30;45.80;;;;;;4977986;28;20027;-67
2023/07/02 01:55:24;;;;;;;0.85;0.70;;;27.20;45.80;;;;;;4980976;28;20038;-67
2023/07/02 01:57:50;;;;;;;0.95;0.70;;;27.30;45.90;;;;;;4979431;28;20038;-67
2023/07/02 02:00:16;;;;;;;0.68;0.65;;;27.30;45.90;;;;;;4980058;28;20065;-66
2023/07/02 02:02:42;;;;;;;0.88;0.65;;;27.20;45.80;;;;;;4982116;28;20491;-66
2023/07/02 02:05:09;;;;;;;0.85;0.70;;;27.20;45.90;;;;;;4981240;28;20027;-66
2023/07/02 02:07:36;;;;;;;0.80;0.70;;;27.20;45.90;;;;;;4977762;28;20033;-67
2023/07/02 02:10:06;;;;;;;0.65;0.60;;;27.20;45.90;;;;;;4980085;28;20019;-66
2023/07/02 02:12:31;;;;;;;0.68;0.60;;;27.20;46.00;;;;;;4961860;28;20505;-66
2023/07/02 02:14:57;;;;;;;0.57;0.57;;;27.20;45.90;;;;;;4980263;28;20030;-66
2023/07/02 02:17:23;;;;;;;0.70;0.60;;;27.10;45.90;;;;;;4980328;28;20491;-66
2023/07/02 02:19:49;;;;;;;0.70;0.70;;;27.20;46.50;;;;;;4963647;28;20119;-66
2023/07/02 02:22:15;;;;;;;0.52;0.52;;;27.10;45.90;;;;;;4979280;28;20569;-66
2023/07/02 02:24:42;;;;;;;0.70;0.60;;;27.10;45.90;;;;;;4980179;28;20097;-66
2023/07/02 02:27:08;;;;;;;1.15;0.70;;;27.10;45.90;;;;;;4980279;28;20109;-66
2023/07/02 02:29:34;;;;;;;0.55;0.50;;;27.10;46.00;;;;;;4980798;28;20031;-66
2023/07/02 02:31:59;;;;;;;0.60;0.60;;;27.10;46.00;;;;;;4979259;28;20117;-66
2023/07/02 02:34:25;;;;;;;0.60;0.60;;;27.10;46.00;;;;;;4978487;28;20027;-66
2023/07/02 02:36:51;;;;;;;1.05;0.70;;;27.00;45.90;;;;;;4978243;28;20071;-66
2023/07/02 02:39:16;;;;;;;0.80;0.70;;;27.00;46.00;;;;;;4980009;28;20094;-66
2023/07/02 02:41:42;;;;;;;1.05;0.63;;;27.00;46.00;;;;;;4962626;28;20178;-66
2023/07/02 02:44:07;;;;;;;0.70;0.60;;;27.00;46.00;;;;;;4980297;28;20019;-66
2023/07/02 02:46:33;;;;;;;0.60;0.60;;;27.00;46.00;;;;;;4980281;28;20034;-66
2023/07/02 02:48:59;;;;;;;0.60;0.60;;;27.00;46.00;;;;;;4979132;28;20041;-66
2023/07/02 02:51:24;;;;;;;0.65;0.65;;;27.00;46.00;;;;;;4978777;28;20053;-66
2023/07/02 02:53:50;;;;;;;1.05;0.57;;;27.00;46.10;;;;;;4977034;28;20566;-66
2023/07/02 02:56:16;;;;;;;0.90;0.60;;;27.00;46.10;;;;;;4980909;28;20035;-66
2023/07/02 02:58:41;;;;;;;0.70;0.60;;;26.90;46.10;;;;;;4979743;28;20101;-66
2023/07/02 03:01:10;;;;;;;0.50;0.50;;;26.90;46.10;;;;;;4960179;28;20034;-66
2023/07/02 03:03:45;;;;;;;1.55;0.70;;;26.90;46.10;;;;;;4979689;28;20428;-67
2023/07/02 03:06:12;;;;;;;0.63;0.63;;;26.90;46.20;;;;;;4978255;28;20441;-66
2023/07/02 03:08:39;;;;;;;0.63;0.50;;;26.90;46.20;;;;;;4977160;28;20026;-66
2023/07/02 03:11:04;;;;;;;0.50;0.50;;;26.80;46.10;;;;;;4978006;28;20042;-66
2023/07/02 03:13:30;;;;;;;0.60;0.60;;;26.80;46.10;;;;;;4981044;28;20351;-66
2023/07/02 03:15:55;;;;;;;0.70;0.65;;;26.80;46.20;;;;;;4978705;28;20038;-66
2023/07/02 03:18:21;;;;;;;0.73;0.70;;;26.80;46.20;;;;;;4979044;28;20035;-66
2023/07/02 03:20:47;;;;;;;0.60;0.60;;;26.80;46.20;;;;;;4980116;28;20030;-66
2023/07/02 03:23:12;;;;;;;0.65;0.60;;;26.80;46.20;;;;;;4978005;28;20053;-66
2023/07/02 03:25:38;;;;;;;0.57;0.57;;;26.80;46.20;;;;;;4979591;28;20431;-66
2023/07/02 03:28:03;;;;;;;0.93;0.70;;;26.80;46.20;;;;;;4976354;28;20090;-66
2023/07/02 03:30:29;;;;;;;0.85;0.70;;;26.70;46.20;;;;;;4963966;28;20487;-66
2023/07/02 03:32:55;;;;;;;0.70;0.50;;;26.70;46.20;;;;;;4977771;28;20547;-66
2023/07/02 03:35:20;;;;;;;0.65;0.60;;;26.70;46.20;;;;;;4978855;28;20030;-66
2023/07/02 03:37:46;;;;;;;0.77;0.57;;;26.70;46.20;;;;;;4962121;28;20394;-67
2023/07/02 03:40:12;;;;;;;0.82;0.60;;;26.70;46.20;;;;;;4961023;28;20097;-66
2023/07/02 03:42:37;;;;;;;0.80;0.70;;;26.70;46.20;;;;;;4980261;28;20387;-66
2023/07/02 03:45:03;;;;;;;0.70;0.60;;;26.70;46.20;;;;;;4969902;28;20045;-66
2023/07/02 03:47:29;;;;;;;0.60;0.60;;;26.70;46.30;;;;;;4978550;28;20108;-66
2023/07/02 03:49:54;;;;;;;0.63;0.60;;;26.70;46.30;;;;;;4969304;28;20023;-66
2023/07/02 03:52:20;;;;;;;0.60;0.50;;;26.70;46.30;;;;;;4976834;28;20042;-66
2023/07/02 03:54:45;;;;;;;0.60;0.60;;;26.70;46.30;;;;;;4977309;28;20449;-66
2023/07/02 03:57:11;;;;;;;0.60;0.60;;;26.60;46.30;;;;;;4979852;28;20041;-66
2023/07/02 03:59:37;;;;;;;0.50;0.50;;;26.60;46.20;;;;;;4978778;28;20034;-66
2023/07/02 04:02:02;;;;;;;0.75;0.60;;;26.70;46.30;;;;;;4979586;28;20035;-66
2023/07/02 04:04:28;;;;;;;1.17;0.68;;;26.60;46.30;;;;;;4966690;28;20057;-66
2023/07/02 04:06:54;;;;;;;0.50;0.50;;;26.60;46.30;;;;;;4982489;28;20575;-66
2023/07/02 04:09:19;;;;;;;0.70;0.60;;;26.60;46.30;;;;;;4982563;28;20033;-66
2023/07/02 04:11:45;;;;;;;0.80;0.70;;;26.60;46.30;;;;;;4981930;28;20479;-66
2023/07/02 04:14:11;;;;;;;0.55;0.55;;;26.60;46.30;;;;;;4982221;28;20031;-66
2023/07/02 04:16:38;;;;;;;0.60;0.60;;;26.60;46.30;;;;;;4981808;28;20486;-66
2023/07/02 04:19:04;;;;;;;0.73;0.60;;;26.60;46.40;;;;;;4980812;28;20122;-66
2023/07/02 04:21:30;;;;;;;0.75;0.60;;;26.60;46.30;;;;;;4983132;28;20038;-66
2023/07/02 04:23:56;;;;;;;0.60;0.60;;;26.50;46.30;;;;;;4979604;28;20029;-66
2023/07/02 04:26:21;;;;;;;0.75;0.63;;;26.50;46.30;;;;;;4981479;28;20415;-66
2023/07/02 04:28:47;;;;;;;0.77;0.60;;;26.50;46.30;;;;;;4980686;28;20109;-66
2023/07/02 04:31:12;;;;;;;0.50;0.50;;;26.50;46.30;;;;;;4980486;28;20035;-66
2023/07/02 04:33:39;;;;;;;0.50;0.50;;;26.50;46.30;;;;;;4967932;28;20027;-66
2023/07/02 04:36:05;;;;;;;0.47;0.47;;;26.50;46.30;;;;;;4983103;28;20078;-66
2023/07/02 04:38:31;;;;;;;0.65;0.60;;;26.50;46.30;;;;;;4979485;28;20412;-66
2023/07/02 04:41:05;;;;;;;0.73;0.60;;;26.50;46.40;;;;;;4982216;28;20038;-66
2023/07/02 04:43:31;;;;;;;0.70;0.55;;;26.50;46.40;;;;;;4980233;28;20419;-66
2023/07/02 04:45:57;;;;;;;0.80;0.65;;;26.50;46.40;;;;;;4980901;28;20477;-66
2023/07/02 04:48:23;;;;;;;0.52;0.52;;;26.50;46.90;;;;;;4981454;28;20221;-66
2023/07/02 04:50:49;;;;;;;0.60;0.60;;;26.40;46.30;;;;;;4979654;28;20038;-66
2023/07/02 04:53:15;;;;;;;0.68;0.60;;;26.50;46.40;;;;;;4978614;28;20035;-66
2023/07/02 04:55:41;;;;;;;0.50;0.50;;;26.40;46.30;;;;;;4979637;28;20100;-66
2023/07/02 04:58:07;;;;;;;0.63;0.55;;;26.40;46.40;;;;;;4972793;28;20470;-66
2023/07/02 05:00:33;;;;;;;0.50;0.50;;;26.40;46.30;;;;;;4984329;28;20126;-66
2023/07/02 05:02:58;;;;;;;0.50;0.50;;;26.40;46.40;;;;;;4982047;28;20420;-66
2023/07/02 05:05:24;;;;;;;0.60;0.60;;;26.40;46.40;;;;;;4981188;28;20027;-66
2023/07/02 05:07:49;;;;;;;0.50;0.50;;;26.40;46.40;;;;;;4980238;28;20165;-66
2023/07/02 05:10:15;;;;;;;0.70;0.55;;;26.40;46.40;;;;;;4979691;28;20549;-66
2023/07/02 05:12:41;;;;;;;0.50;0.50;;;26.40;46.40;;;;;;4982047;28;20125;-66
2023/07/02 05:15:07;;;;;;;0.60;0.60;;;26.40;46.40;;;;;;4981443;28;20094;-66
2023/07/02 05:17:34;;;;;;;0.50;0.50;;;26.40;46.40;;;;;;4980558;28;20082;-66
2023/07/02 05:20:04;;;;;;;0.68;0.60;;;26.40;46.40;;;;;;4979686;28;20128;-66
2023/07/02 05:22:30;;;;;;;0.50;0.50;;;26.30;46.40;;;;;;4981419;28;20518;-66
2023/07/02 05:24:55;;;;;;;0.65;0.60;;;26.40;46.40;;;;;;4981482;28;20043;-66
2023/07/02 05:27:21;;;;;;;0.75;0.63;;;26.40;46.40;;;;;;4981968;28;20026;-66
2023/07/02 05:29:47;;;;;;;0.55;0.50;;;26.40;46.40;;;;;;4980790;28;20038;-66
2023/07/02 05:32:12;;;;;;;0.60;0.60;;;26.30;46.40;;;;;;4971584;28;20070;-66
2023/07/02 05:34:38;;;;;;;0.57;0.57;;;26.30;46.40;;;;;;4981517;28;20120;-66
2023/07/02 05:37:04;;;;;;;0.60;0.60;;;26.40;46.50;;;;;;4980954;28;20177;-66
2023/07/02 05:39:30;;;;;;;0.77;0.60;;;26.30;46.40;;;;;;4977611;28;20039;-65
2023/07/02 05:41:56;;;;;;;0.90;0.73;;;26.30;46.40;;;;;;4982133;28;20557;-66
2023/07/02 05:44:22;;;;;;;0.70;0.70;;;26.30;46.40;;;;;;4981275;28;20043;-66
2023/07/02 05:46:47;;;;;;;0.73;0.60;;;26.30;46.40;;;;;;4979997;28;20497;-67
2023/07/02 05:49:13;;;;;;;0.50;0.50;;;26.30;46.40;;;;;;4980076;28;20046;-67
2023/07/02 05:51:38;;;;;;;0.82;0.60;;;26.30;46.40;;;;;;4979609;28;20031;-66
2023/07/02 05:54:04;;;;;;;0.98;0.70;;;26.30;46.40;;;;;;4969665;28;20475;-67
2023/07/02 05:56:29;;;;;;;0.60;0.60;;;26.30;46.40;;;;;;4981451;28;20054;-67
2023/07/02 05:58:55;;;;;;;0.68;0.68;;;26.30;46.40;;;;;;4962607;28;20109;-66
2023/07/02 06:01:21;;;;;;;0.55;0.55;;;26.30;46.40;;;;;;4981736;28;20039;-66
2023/07/02 06:03:49;;;;;;;0.60;0.60;;;26.30;46.50;;;;;;4980261;28;20027;-67
2023/07/02 06:06:15;;;;;;;0.50;0.50;;;26.30;46.40;;;;;;4981280;28;20367;-67
2023/07/02 06:08:41;;;;;;;0.75;0.70;;;26.30;46.40;;;;;;4961330;28;20174;-67
2023/07/02 06:11:06;;;;;;;0.63;0.60;;;26.30;46.40;;;;;;4964391;28;20058;-67
2023/07/02 06:13:32;;;;;;;0.80;0.65;;;26.30;46.50;;;;;;4971116;28;20478;-67
2023/07/02 06:15:57;;;;;;;1.02;0.77;;;26.20;46.40;;;;;;4978602;28;20042;-67
2023/07/02 06:18:23;;;;;;;0.60;0.60;;;26.20;46.40;;;;;;4980615;28;20141;-67
2023/07/02 06:20:49;;;;;;;0.90;0.73;;;26.30;46.50;;;;;;4979988;28;20495;-67
2023/07/02 06:23:14;;;;;;;0.60;0.60;;;26.20;46.40;;;;;;4976446;28;20110;-67
2023/07/02 06:25:40;;;;;;;1.15;0.73;;;26.20;46.40;;;;;;4957558;28;20447;-67
2023/07/02 06:28:05;;;;;;;0.63;0.60;;;26.20;46.40;;;;;;4976367;28;20026;-67
2023/07/02 06:30:31;;;;;;;0.70;0.70;;;26.20;46.50;;;;;;4965697;28;20042;-67
2023/07/02 06:32:57;;;;;;;0.60;0.60;;;26.20;46.50;;;;;;4979327;28;20026;-67
2023/07/02 06:35:22;;;;;;;0.75;0.60;;;26.20;46.50;;;;;;4979695;28;20089;-67
2023/07/02 06:37:48;;;;;;;0.80;0.68;;;26.20;46.50;;;;;;4960739;28;20035;-67
2023/07/02 06:40:14;;;;;;;0.77;0.70;;;26.20;46.50;;;;;;4978489;28;20045;-67
2023/07/02 06:42:40;;;;;;;0.88;0.70;;;26.20;46.50;;;;;;4979267;28;20018;-67
2023/07/02 06:45:07;;;;;;;0.70;0.70;;;26.20;46.50;;;;;;4981663;28;20046;-67
2023/07/02 06:47:32;;;;;;;0.60;0.60;;;26.20;46.50;;;;;;4978681;28;20138;-66
2023/07/02 06:49:59;;;;;;;0.60;0.60;;;26.20;46.60;;;;;;4979904;28;20486;-67
2023/07/02 06:52:24;;;;;;;0.57;0.57;;;26.20;46.60;;;;;;4977969;28;20045;-67
2023/07/02 06:54:50;;;;;;;0.85;0.70;;;26.10;46.50;;;;;;4979562;28;20037;-67
2023/07/02 06:57:16;;;;;;;0.60;0.60;;;26.20;46.60;;;;;;4979983;28;20027;-67
2023/07/02 06:59:42;;;;;;;0.60;0.60;;;26.20;46.60;;;;;;4980955;28;20038;-67
2023/07/02 07:02:07;;;;;;;0.70;0.70;;;26.20;46.60;;;;;;4963738;28;20026;-67
2023/07/02 07:04:36;;;;;;;0.70;0.60;;;26.20;46.60;;;;;;4979598;28;20031;-66
2023/07/02 07:07:05;;;;;;;0.93;0.70;;;26.10;46.50;;;;;;4979184;28;20125;-67
2023/07/02 07:09:31;;;;;;;;;;;26.10;46.60;;;;;;4977577;28;20023;-66
2023/07/02 07:11:57;;;;;;;0.82;0.70;;;26.10;46.60;;;;;;4976967;28;19933;-66
2023/07/02 07:14:22;;;;;;;0.60;0.60;;;26.10;46.60;;;;;;4978848;28;20111;-66
2023/07/02 07:16:48;;;;;;;1.10;0.70;;;26.10;46.60;;;;;;4980409;28;20568;-66
2023/07/02 07:19:14;;;;;;;0.95;0.77;;;26.10;46.60;;;;;;4980850;28;20121;-66
2023/07/02 07:21:40;;;;;;;0.70;0.60;;;26.10;46.60;;;;;;4979899;28;20035;-66
2023/07/02 07:24:06;;;;;;;0.88;0.88;;;26.10;46.60;;;;;;4979693;28;20034;-66
2023/07/02 07:26:32;;;;;;;0.70;0.70;;;26.10;46.60;;;;;;4978313;28;20432;-66
2023/07/02 07:28:57;;;;;;;0.70;0.70;;;26.10;46.60;;;;;;4961924;28;20056;-67
2023/07/02 07:31:24;;;;;;;0.70;0.70;;;26.10;46.60;;;;;;4962745;28;20101;-66
2023/07/02 07:33:49;;;;;;;0.95;0.80;;;26.10;46.60;;;;;;4978664;28;20364;-66
2023/07/02 07:36:15;;;;;;;0.80;0.80;;;26.10;46.60;;;;;;4978499;28;20029;-66
2023/07/02 07:38:43;;;;;;;0.70;0.70;;;26.00;46.60;;;;;;4977057;28;20046;-66
2023/07/02 07:41:08;;;;;;;0.90;0.80;;;26.10;46.60;;;;;;4977863;28;20046;-66
2023/07/02 07:43:34;;;;;;;0.70;0.70;;;26.00;46.60;;;;;;4978113;28;20026;-66
2023/07/02 07:46:00;;;;;;;1.20;0.90;;;26.10;46.60;;;;;;4963847;28;20154;-66
2023/07/02 07:48:25;;;;;;;1.00;0.90;;;26.00;46.60;;;;;;4968752;28;20409;-67
2023/07/02 07:50:51;;;;;;;0.93;0.80;;;26.10;46.60;;;;;;4978535;28;20479;-66
2023/07/02 07:53:16;;;;;;;0.88;0.82;;;26.10;46.70;;;;;;4978012;28;20491;-66
2023/07/02 07:55:42;;;;;;;1.60;1.00;;;26.10;46.60;;;;;;4977589;28;20038;-66
2023/07/02 07:58:08;;;;;;;1.40;1.10;;;26.00;46.60;;;;;;4978207;28;20923;-66
2023/07/02 08:00:33;;;;;;;1.40;1.00;;;26.00;46.60;;;;;;4978530;28;20038;-66
2023/07/02 08:03:00;;;;;;;1.50;1.05;;;26.00;46.60;;;;;;4978986;28;20034;-66
2023/07/02 08:05:26;;;;;;;1.10;0.98;;;26.00;46.60;;;;;;4979402;28;20042;-62
2023/07/02 08:07:53;;;;;;;1.40;0.90;;;26.00;46.60;;;;;;4976447;28;20065;-61
2023/07/02 08:10:19;;;;;;;1.30;0.90;;;26.00;46.60;;;;;;4978073;28;20124;-61
2023/07/02 08:12:47;;;;;;;1.52;1.00;;;26.00;46.60;;;;;;4969724;28;20027;-61
2023/07/02 08:15:12;;;;;;;1.67;1.02;;;26.00;46.60;;;;;;4980095;28;20023;-63
2023/07/02 08:17:38;;;;;;;1.90;1.10;;;26.00;46.60;;;;;;4976467;28;20108;-61
2023/07/02 08:20:04;;;;;;;2.00;1.17;;;26.00;46.60;;;;;;4979233;28;20102;-62
2023/07/02 08:22:30;;;;;;;2.22;1.20;;;26.00;46.60;;;;;;4964345;28;20176;-61
2023/07/02 08:24:56;;;;;;;1.55;1.08;;;26.00;46.60;;;;;;4975909;28;20092;-61
2023/07/02 08:27:23;;;;;;;1.88;1.20;;;26.00;46.60;;;;;;4977922;28;20513;-62
2023/07/02 08:29:48;;;;;;;1.70;1.20;;;25.90;46.50;;;;;;4977895;28;20030;-61
2023/07/02 08:32:15;;;;;;;2.13;1.30;;;26.00;46.60;;;;;;4969751;28;20031;-62
2023/07/02 08:34:40;;;;;;;2.15;1.40;;;26.00;46.60;;;;;;4977221;28;20067;-62
2023/07/02 08:37:06;;;;;;;2.10;1.38;;;25.90;46.50;;;;;;4977342;28;20438;-62
2023/07/02 08:39:32;;;;;;;1.88;1.25;;;26.00;46.60;;;;;;4976026;28;20124;-61
2023/07/02 08:41:57;;;;;;;2.42;1.30;;;26.00;46.60;;;;;;4976776;28;20041;-61
2023/07/02 08:44:24;;;;;;;1.63;1.20;;;26.00;46.60;;;;;;4977229;28;20034;-62
2023/07/02 08:46:56;;;;;;;1.98;1.40;;;26.00;46.60;;;;;;4961908;28;20121;-61
2023/07/02 08:49:21;;;;;;;1.60;1.27;;;25.90;46.50;;;;;;4977542;28;20018;-61
2023/07/02 08:51:47;;;;;;;1.65;1.20;;;25.90;46.50;;;;;;4981564;28;20042;-62
2023/07/02 08:54:13;;;;;;;1.90;1.20;;;25.90;46.50;;;;;;4981402;28;20549;-61
2023/07/02 08:56:39;;;;;;;1.35;1.10;;;25.90;46.50;;;;;;4962655;28;20455;-62
2023/07/02 08:59:09;;;;;;;1.80;1.20;;;25.90;46.50;;;;;;4967095;28;20045;-61
2023/07/02 09:01:48;;;;;;;1.80;1.27;;;25.90;46.50;;;;;;4981738;28;20030;-62
2023/07/02 09:04:18;;;;;;;2.05;1.40;;;25.90;46.50;;;;;;4979667;28;20479;-62
2023/07/02 09:06:44;;;;;;;2.38;1.30;;;25.90;46.50;;;;;;4981851;28;20613;-62
2023/07/02 09:09:09;;;;;;;1.65;1.17;;;25.90;46.50;;;;;;4980800;28;20117;-62
2023/07/02 09:11:45;;;;;;;2.03;1.30;;;25.90;46.40;;;;;;4981381;28;20034;-62
2023/07/02 09:14:11;;;;;;;1.90;1.33;;;25.90;46.50;;;;;;4980784;28;20039;-61
2023/07/02 09:16:39;;;;;;;2.10;1.50;;;25.90;46.40;;;;;;4980994;28;20027;-61
2023/07/02 09:19:08;;;;;;;2.28;1.30;;;25.90;46.40;;;;;;4982425;28;20026;-61
2023/07/02 09:21:44;;;;;;;;;;;25.90;46.40;;;;;;4981635;28;20053;-61
2023/07/02 09:24:19;;;;;;;1.90;1.40;;;25.90;46.40;;;;;;4979109;28;19910;-62
2023/07/02 09:27:00;;;;;;;2.50;1.40;;;25.90;46.40;;;;;;4980303;28;20118;-62
2023/07/02 09:29:31;;;;;;;2.17;1.30;;;25.90;46.40;;;;;;4979898;28;20085;-61
2023/07/02 09:32:07;;;;;;;1.67;1.23;;;25.90;46.40;;;;;;4981301;28;20030;-62
2023/07/02 09:34:34;;;;;;;2.00;1.40;;;25.90;46.40;;;;;;4981139;28;20034;-61
2023/07/02 09:37:01;;;;;;;2.70;1.80;;;25.90;46.40;;;;;;4981289;28;20065;-62
2023/07/02 09:39:29;;;;;;;2.28;1.50;;;25.90;46.40;;;;;;4979911;28;20031;-62
2023/07/02 09:41:56;;;;;;;2.33;1.60;;;25.90;46.40;;;;;;4979319;28;20026;-62
2023/07/02 09:44:32;;;;;;;2.25;1.55;;;25.90;46.40;;;;;;4980476;28;20019;-62
2023/07/02 09:47:03;;;;;;;1.70;1.35;;;25.90;46.40;;;;;;4979468;28;20023;-61
2023/07/02 09:49:34;;;;;;;2.00;1.42;;;25.80;46.40;;;;;;4980371;28;20027;-61
2023/07/02 09:52:02;;;;;;;2.60;1.70;;;25.90;46.40;;;;;;4979784;28;20041;-63
2023/07/02 09:54:29;;;;;;;2.38;1.60;;;25.90;46.40;;;;;;4981951;28;20120;-61
2023/07/02 09:56:56;;;;;;;2.05;1.42;;;25.90;46.40;;;;;;4977510;28;20041;-61
2023/07/02 09:59:22;;;;;;;2.38;1.50;;;25.90;46.40;;;;;;4981635;28;20030;-62
2023/07/02 10:01:47;;;;;;;2.10;1.48;;;25.90;46.40;;;;;;4980726;28;20027;-61
2023/07/02 10:04:15;;;;;;;2.35;1.50;;;25.90;46.50;;;;;;4981155;28;20083;-62
2023/07/02 10:06:46;;;;;;;2.28;1.52;;;25.80;46.40;;;;;;4980793;28;20447;-61
2023/07/02 10:09:12;;;;;;;2.00;1.40;;;25.80;46.40;;;;;;4982011;28;20465;-62
2023/07/02 10:11:37;;;;;;;2.05;1.50;;;25.80;46.40;;;;;;4959928;28;20054;-63
2023/07/02 10:14:03;;;;;;;2.58;1.65;;;25.80;46.40;;;;;;4979186;28;20038;-61
2023/07/02 10:16:31;;;;;;;2.30;1.60;;;25.80;46.40;;;;;;4979512;28;20061;-62
2023/07/02 10:19:09;;;;;;;1.80;1.38;;;25.80;46.30;;;;;;4978971;28;20047;-62
2023/07/02 10:21:34;;;;;;;2.28;1.65;;;25.90;46.40;;;;;;4967751;28;20646;-62
2023/07/02 10:24:12;;;;;;;2.60;1.70;;;25.80;46.30;;;;;;4969590;28;20027;-62
2023/07/02 10:26:38;;;;;;;2.42;1.73;;;25.80;46.30;;;;;;4979780;28;20015;-62
2023/07/02 10:29:05;;;;;;;2.30;1.73;;;25.80;46.30;;;;;;4980945;28;20441;-62
2023/07/02 10:31:31;;;;;;;2.38;1.67;;;25.80;46.30;;;;;;4979771;28;20054;-64
2023/07/02 10:33:57;;;;;;;2.58;1.70;;;25.80;46.30;;;;;;4977856;28;20065;-62
2023/07/02 10:36:24;;;;;;;2.80;1.88;;;25.80;46.40;;;;;;4980465;28;20429;-61
2023/07/02 10:38:52;;;;;;;2.28;1.55;;;25.80;46.30;;;;;;4980518;28;20117;-61
2023/07/02 10:41:26;;;;;;;2.53;1.63;;;25.80;46.30;;;;;;4978688;28;20570;-61
2023/07/02 10:43:52;;;;;;;2.30;1.60;;;25.80;46.30;;;;;;4979449;28;20373;-60
2023/07/02 10:46:20;;;;;;;3.10;1.70;;;25.80;46.30;;;;;;4980092;28;20324;-61
2023/07/02 10:48:55;;;;;;;2.20;1.60;;;25.80;46.40;;;;;;4979060;28;20031;-61
2023/07/02 10:51:21;;;;;;;2.20;1.60;;;25.80;46.40;;;;;;4978896;28;20135;-61
2023/07/02 10:54:00;;;;;;;3.05;1.75;;;25.80;46.40;;;;;;4978778;28;20022;-62
2023/07/02 10:56:29;;;;;;;2.60;1.67;;;25.80;46.40;;;;;;4979143;28;20027;-61
2023/07/02 10:58:55;;;;;;;2.43;1.70;;;25.80;46.50;;;;;;4981083;28;20072;-62
2023/07/02 11:01:24;;;;;;;2.40;1.50;;;25.80;46.40;;;;;;4979232;28;20038;-62
2023/07/02 11:04:00;;;;;;;2.78;1.70;;;25.80;46.40;;;;;;4980466;28;20027;-61
2023/07/02 11:06:32;;;;;;;2.80;1.85;;;25.80;46.50;;;;;;4979154;28;20363;-61
2023/07/02 11:08:58;;;;;;;2.42;1.70;;;25.80;46.50;;;;;;4963195;28;20042;-62
2023/07/02 11:11:24;;;;;;;2.70;1.50;;;25.80;46.50;;;;;;4977805;28;20034;-61
2023/07/02 11:13:51;;;;;;;2.42;1.83;;;25.80;46.60;;;;;;4978454;28;20617;-61
2023/07/02 11:16:26;;;;;;;2.80;1.70;;;25.80;46.60;;;;;;4979975;28;20030;-61
2023/07/02 11:19:08;;;;;;;2.17;1.63;;;25.80;46.70;;;;;;4980704;28;20510;-62
2023/07/02 11:21:35;;;;;;;2.38;1.67;;;25.80;46.80;;;;;;4977734;28;20033;-62
2023/07/02 11:24:06;;;;;;;2.90;1.92;;;25.80;46.70;;;;;;4979130;28;20027;-61
2023/07/02 11:26:39;;;;;;;2.58;1.85;;;25.80;46.80;;;;;;4959132;28;20170;-61
2023/07/02 11:29:11;;;;;;;3.05;1.92;;;25.80;46.80;;;;;;4978829;28;20031;-62
2023/07/02 11:31:37;;;;;;;2.58;1.75;;;25.80;46.70;;;;;;4961606;28;20181;-61
2023/07/02 11:34:12;;;;;;;2.60;1.80;;;25.80;46.80;;;;;;4978561;28;20582;-61
2023/07/02 11:36:37;;;;;;;2.25;1.65;;;25.80;46.80;;;;;;4961312;28;20659;-61
2023/07/02 11:39:03;;;;;;;2.55;1.80;;;25.80;46.80;;;;;;4976808;28;20054;-61
2023/07/02 11:41:43;;;;;;;2.70;1.70;;;25.80;46.80;;;;;;4977181;28;20034;-61
2023/07/02 11:44:09;;;;;;;2.85;1.80;;;25.80;46.80;;;;;;4977464;28;20429;-61
2023/07/02 11:46:35;;;;;;;2.90;1.90;;;25.80;46.80;;;;;;4977490;28;20037;-62
2023/07/02 11:49:01;;;;;;;2.95;2.08;;;25.80;46.80;;;;;;4977561;28;20031;-61
2023/07/02 11:51:27;;;;;;;2.70;1.95;;;25.80;46.80;;;;;;4979993;28;20022;-61
2023/07/02 11:53:53;;;;;;;2.65;1.90;;;25.80;46.80;;;;;;4977620;28;20035;-61
2023/07/02 11:56:19;;;;;;;2.30;1.60;;;25.80;46.80;;;;;;4977336;28;20029;-60
2023/07/02 11:58:44;;;;;;;2.35;1.73;;;25.80;46.80;;;;;;4979359;28;20031;-61
2023/07/02 12:01:10;;;;;;;2.38;1.73;;;25.80;46.80;;;;;;4978818;28;20545;-61
2023/07/02 12:03:36;;;;;;;2.47;1.75;;;25.80;46.80;;;;;;4977634;28;20057;-62
2023/07/02 12:06:01;;;;;;;2.40;1.52;;;25.80;46.80;;;;;;4977812;28;20474;-61
2023/07/02 12:08:27;;;;;;;3.03;1.92;;;25.80;46.80;;;;;;4962874;28;20049;-61
2023/07/02 12:10:52;;;;;;;3.00;1.92;;;25.80;46.80;;;;;;4979528;28;20034;-61
2023/07/02 12:13:20;;;;;;;2.55;1.80;;;25.80;46.80;;;;;;4977834;28;20121;-61
2023/07/02 12:15:47;;;;;;;3.53;1.95;;;25.80;46.80;;;;;;4976934;28;20545;-61
2023/07/02 12:18:12;;;;;;;3.08;1.90;;;25.80;46.80;;;;;;4978578;28;20026;-61
2023/07/02 12:20:40;;;;;;;3.42;2.33;;;25.80;46.80;;;;;;4978262;28;20035;-62
2023/07/02 12:23:06;;;;;;;2.25;1.65;;;25.80;46.80;;;;;;4977835;28;20427;-61
2023/07/02 12:25:31;;;;;;;2.83;1.85;;;25.80;46.70;;;;;;4979263;28;20064;-61
2023/07/02 12:27:57;;;;;;;3.80;1.90;;;25.80;46.80;;;;;;4978579;28;20019;-61
2023/07/02 12:30:23;;;;;;;2.88;1.98;;;25.80;46.80;;;;;;4971674;28;20042;-61
2023/07/02 12:32:48;;;;;;;2.67;1.90;;;25.90;46.80;;;;;;4984507;28;20505;-61
2023/07/02 12:35:14;;;;;;;2.80;1.90;;;25.90;46.80;;;;;;4985024;28;20513;-68
2023/07/02 12:37:47;;;;;;;3.10;2.00;;;25.90;46.80;;;;;;4972453;28;20101;-69
2023/07/02 12:40:13;;;;;;;2.88;2.05;;;25.90;46.80;;;;;;4982127;28;20018;-68
2023/07/02 12:42:40;;;;;;;2.58;2.03;;;25.80;46.70;;;;;;4980191;28;20073;-69
2023/07/02 12:45:07;;;;;;;4.18;2.17;;;25.80;46.70;;;;;;4979708;28;20133;-68
2023/07/02 12:47:32;;;;;;;3.15;2.10;;;25.90;46.70;;;;;;4982081;28;20033;-68